sensor_id;sensor_type;location;lat;lon;timestamp;temperature;humidity
9907;DHT22;4992;51.628;6.664;2024-03-25T00:01:31;5.40;99.90
9907;DHT22;4992;51.628;6.664;2024-03-25T00:03:57;5.40;99.90
9907;DHT22;4992;51.628;6.664;2024-03-25T00:06:22;5.30;99.90
9907;DHT22;4992;51.628;6.664;2024-03-25T00:08:48;5.30;99.90
9907;DHT22;4992;51.628;6.664;2024-03-25T00:11:13;5.30;99.90
9907;DHT22;4992;51.628;6.664;2024-03-25T00:13:39;5.20;99.90
9907;DHT22;4992;51.628;6.664;2024-03-25T00:16:05;5.20;99.90
9907;DHT22;4992;51.628;6.664;2024-03-25T00:18:32;5.20;99.90
9907;DHT22;4992;51.628;6.664;2024-03-25T00:20:57;5.20;99.90
9907;DHT22;4992;51.628;6.664;2024-03-25T00:23:23;5.20;99.90
9907;DHT22;4992;51.628;6.664;2024-03-25T00:25:48;5.20;99.90
9907;DHT22;4992;51.628;6.664;2024-03-25T00:28:14;5.20;99.90
9907;DHT22;4992;51.628;6.664;2024-03-25T00:30:40;5.20;99.90
9907;DHT22;4992;51.628;6.664;2024-03-25T00:33:05;5.20;99.90
9907;DHT22;4992;51.628;6.664;2024-03-25T00:35:35;5.10;99.90
9907;DHT22;4992;51.628;6.664;2024-03-25T00:38:00;5.10;99.90
9907;DHT22;4992;51.628;6.664;2024-03-25T00:40:26;5.10;99.90
9907;DHT22;4992;51.628;6.664;2024-03-25T00:42:51;5.10;99.90
9907;DHT22;4992;51.628;6.664;2024-03-25T00:45:17;5.10;99.90
9907;DHT22;4992;51.628;6.664;2024-03-25T00:47:43;5.00;99.90
9907;DHT22;4992;51.628;6.664;2024-03-25T00:50:08;5.00;99.90
9907;DHT22;4992;51.628;6.664;2024-03-25T00:52:34;4.90;99.90
9907;DHT22;4992;51.628;6.664;2024-03-25T00:55:00;4.80;99.90
9907;DHT22;4992;51.628;6.664;2024-03-25T00:57:26;4.80;99.90
9907;DHT22;4992;51.628;6.664;2024-03-25T00:59:52;4.80;99.90
9907;DHT22;4992;51.628;6.664;2024-03-25T01:02:17;4.70;99.90
9907;DHT22;4992;51.628;6.664;2024-03-25T01:04:43;4.70;99.90
9907;DHT22;4992;51.628;6.664;2024-03-25T01:07:09;4.70;99.90
9907;DHT22;4992;51.628;6.664;2024-03-25T01:09:34;4.70;99.90
9907;DHT22;4992;51.628;6.664;2024-03-25T01:12:00;4.70;99.90
9907;DHT22;4992;51.628;6.664;2024-03-25T01:14:26;4.70;99.90
9907;DHT22;4992;51.628;6.664;2024-03-25T01:16:52;4.70;99.90
9907;DHT22;4992;51.628;6.664;2024-03-25T01:19:17;4.70;99.90
9907;DHT22;4992;51.628;6.664;2024-03-25T01:21:43;4.70;99.90
9907;DHT22;4992;51.628;6.664;2024-03-25T01:24:09;4.70;99.90
9907;DHT22;4992;51.628;6.664;2024-03-25T01:26:35;4.70;99.90
9907;DHT22;4992;51.628;6.664;2024-03-25T01:29:01;4.70;99.90
9907;DHT22;4992;51.628;6.664;2024-03-25T01:31:27;4.60;99.90
9907;DHT22;4992;51.628;6.664;2024-03-25T01:33:52;4.60;99.90
9907;DHT22;4992;51.628;6.664;2024-03-25T01:36:18;4.50;99.90
9907;DHT22;4992;51.628;6.664;2024-03-25T01:38:46;4.50;99.90
9907;DHT22;4992;51.628;6.664;2024-03-25T01:41:13;4.40;99.90
9907;DHT22;4992;51.628;6.664;2024-03-25T01:43:41;4.40;99.90
9907;DHT22;4992;51.628;6.664;2024-03-25T01:46:07;4.30;99.90
9907;DHT22;4992;51.628;6.664;2024-03-25T01:48:33;4.30;99.90
9907;DHT22;4992;51.628;6.664;2024-03-25T01:50:58;4.30;99.90
9907;DHT22;4992;51.628;6.664;2024-03-25T01:53:26;4.20;99.90
9907;DHT22;4992;51.628;6.664;2024-03-25T01:55:55;4.20;99.90
9907;DHT22;4992;51.628;6.664;2024-03-25T01:58:23;4.10;99.90
9907;DHT22;4992;51.628;6.664;2024-03-25T02:00:49;4.10;99.90
9907;DHT22;4992;51.628;6.664;2024-03-25T02:03:16;4.10;99.90
9907;DHT22;4992;51.628;6.664;2024-03-25T02:05:42;4.00;99.90
9907;DHT22;4992;51.628;6.664;2024-03-25T02:08:09;4.00;99.90
9907;DHT22;4992;51.628;6.664;2024-03-25T02:10:35;4.00;99.90
9907;DHT22;4992;51.628;6.664;2024-03-25T02:13:03;4.00;99.90
9907;DHT22;4992;51.628;6.664;2024-03-25T02:15:29;3.90;99.90
9907;DHT22;4992;51.628;6.664;2024-03-25T02:17:55;3.90;99.90
9907;DHT22;4992;51.628;6.664;2024-03-25T02:20:20;3.90;99.90
9907;DHT22;4992;51.628;6.664;2024-03-25T02:22:46;3.80;99.90
9907;DHT22;4992;51.628;6.664;2024-03-25T02:25:14;3.80;99.90
9907;DHT22;4992;51.628;6.664;2024-03-25T02:27:41;3.80;99.90
9907;DHT22;4992;51.628;6.664;2024-03-25T02:30:08;3.80;99.90
9907;DHT22;4992;51.628;6.664;2024-03-25T02:32:35;3.80;99.90
9907;DHT22;4992;51.628;6.664;2024-03-25T02:35:02;3.80;99.90
9907;DHT22;4992;51.628;6.664;2024-03-25T02:37:29;3.80;99.90
9907;DHT22;4992;51.628;6.664;2024-03-25T02:39:57;3.90;99.90
9907;DHT22;4992;51.628;6.664;2024-03-25T02:42:24;3.90;99.90
9907;DHT22;4992;51.628;6.664;2024-03-25T02:44:50;4.00;99.90
9907;DHT22;4992;51.628;6.664;2024-03-25T02:47:16;4.00;99.90
9907;DHT22;4992;51.628;6.664;2024-03-25T02:49:43;4.10;99.90
9907;DHT22;4992;51.628;6.664;2024-03-25T02:52:08;4.10;99.90
9907;DHT22;4992;51.628;6.664;2024-03-25T02:54:34;4.10;99.90
9907;DHT22;4992;51.628;6.664;2024-03-25T02:56:59;4.10;99.90
9907;DHT22;4992;51.628;6.664;2024-03-25T02:59:25;4.10;99.90
9907;DHT22;4992;51.628;6.664;2024-03-25T03:01:50;4.10;99.90
9907;DHT22;4992;51.628;6.664;2024-03-25T03:04:16;4.00;99.90
9907;DHT22;4992;51.628;6.664;2024-03-25T03:06:41;4.00;99.90
9907;DHT22;4992;51.628;6.664;2024-03-25T03:09:07;4.00;99.90
9907;DHT22;4992;51.628;6.664;2024-03-25T03:11:32;3.90;99.90
9907;DHT22;4992;51.628;6.664;2024-03-25T03:13:58;3.90;99.90
9907;DHT22;4992;51.628;6.664;2024-03-25T03:16:23;3.90;99.90
9907;DHT22;4992;51.628;6.664;2024-03-25T03:18:49;3.90;99.90
9907;DHT22;4992;51.628;6.664;2024-03-25T03:21:15;3.80;99.90
9907;DHT22;4992;51.628;6.664;2024-03-25T03:23:40;3.80;99.90
9907;DHT22;4992;51.628;6.664;2024-03-25T03:26:06;3.80;99.90
9907;DHT22;4992;51.628;6.664;2024-03-25T03:28:31;3.80;99.90
9907;DHT22;4992;51.628;6.664;2024-03-25T03:30:57;3.80;99.90
9907;DHT22;4992;51.628;6.664;2024-03-25T03:33:22;3.70;99.90
9907;DHT22;4992;51.628;6.664;2024-03-25T03:35:49;3.70;99.90
9907;DHT22;4992;51.628;6.664;2024-03-25T03:38:15;3.70;99.90
9907;DHT22;4992;51.628;6.664;2024-03-25T03:40:40;3.70;99.90
9907;DHT22;4992;51.628;6.664;2024-03-25T03:43:06;3.70;99.90
9907;DHT22;4992;51.628;6.664;2024-03-25T03:45:33;3.70;99.90
9907;DHT22;4992;51.628;6.664;2024-03-25T03:48:01;3.60;99.90
9907;DHT22;4992;51.628;6.664;2024-03-25T03:50:26;3.60;99.90
9907;DHT22;4992;51.628;6.664;2024-03-25T03:52:52;3.60;99.90
9907;DHT22;4992;51.628;6.664;2024-03-25T03:55:17;3.50;99.90
9907;DHT22;4992;51.628;6.664;2024-03-25T03:57:43;3.50;99.90
9907;DHT22;4992;51.628;6.664;2024-03-25T04:00:09;3.40;99.90
9907;DHT22;4992;51.628;6.664;2024-03-25T04:02:37;3.40;99.90
9907;DHT22;4992;51.628;6.664;2024-03-25T04:05:03;3.50;99.90
9907;DHT22;4992;51.628;6.664;2024-03-25T04:07:28;3.40;99.90
9907;DHT22;4992;51.628;6.664;2024-03-25T04:09:57;3.30;99.90
9907;DHT22;4992;51.628;6.664;2024-03-25T04:12:22;3.30;99.90
9907;DHT22;4992;51.628;6.664;2024-03-25T04:14:48;3.30;99.90
9907;DHT22;4992;51.628;6.664;2024-03-25T04:17:14;3.20;99.90
9907;DHT22;4992;51.628;6.664;2024-03-25T04:19:40;3.20;99.90
9907;DHT22;4992;51.628;6.664;2024-03-25T04:22:07;3.20;99.90
9907;DHT22;4992;51.628;6.664;2024-03-25T04:24:32;3.20;99.90
9907;DHT22;4992;51.628;6.664;2024-03-25T04:26:59;3.20;99.90
9907;DHT22;4992;51.628;6.664;2024-03-25T04:29:25;3.10;99.90
9907;DHT22;4992;51.628;6.664;2024-03-25T04:31:51;3.10;99.90
9907;DHT22;4992;51.628;6.664;2024-03-25T04:34:16;3.00;99.90
9907;DHT22;4992;51.628;6.664;2024-03-25T04:36:42;3.00;99.90
9907;DHT22;4992;51.628;6.664;2024-03-25T04:39:07;3.00;99.90
9907;DHT22;4992;51.628;6.664;2024-03-25T04:41:33;2.90;99.90
9907;DHT22;4992;51.628;6.664;2024-03-25T04:43:59;2.90;99.90
9907;DHT22;4992;51.628;6.664;2024-03-25T04:46:24;2.90;99.90
9907;DHT22;4992;51.628;6.664;2024-03-25T04:48:50;2.80;99.90
9907;DHT22;4992;51.628;6.664;2024-03-25T04:51:15;2.80;99.90
9907;DHT22;4992;51.628;6.664;2024-03-25T04:53:41;2.80;99.90
9907;DHT22;4992;51.628;6.664;2024-03-25T04:56:06;2.70;99.90
9907;DHT22;4992;51.628;6.664;2024-03-25T04:58:32;2.70;99.90
9907;DHT22;4992;51.628;6.664;2024-03-25T05:00:57;2.70;99.90
9907;DHT22;4992;51.628;6.664;2024-03-25T05:03:23;2.70;99.90
9907;DHT22;4992;51.628;6.664;2024-03-25T05:05:48;2.70;99.90
9907;DHT22;4992;51.628;6.664;2024-03-25T05:08:14;2.70;99.90
9907;DHT22;4992;51.628;6.664;2024-03-25T05:10:39;2.70;99.90
9907;DHT22;4992;51.628;6.664;2024-03-25T05:13:05;2.70;99.90
9907;DHT22;4992;51.628;6.664;2024-03-25T05:15:30;2.70;99.90
9907;DHT22;4992;51.628;6.664;2024-03-25T05:17:56;2.80;99.90
9907;DHT22;4992;51.628;6.664;2024-03-25T05:20:22;2.80;99.90
9907;DHT22;4992;51.628;6.664;2024-03-25T05:22:48;2.90;99.90
9907;DHT22;4992;51.628;6.664;2024-03-25T05:25:13;2.90;99.90
9907;DHT22;4992;51.628;6.664;2024-03-25T05:27:39;2.90;99.90
9907;DHT22;4992;51.628;6.664;2024-03-25T05:30:05;2.90;99.90
9907;DHT22;4992;51.628;6.664;2024-03-25T05:32:31;2.90;99.90
9907;DHT22;4992;51.628;6.664;2024-03-25T05:34:56;2.90;99.90
9907;DHT22;4992;51.628;6.664;2024-03-25T05:37:22;3.00;99.90
9907;DHT22;4992;51.628;6.664;2024-03-25T05:39:47;2.90;99.90
9907;DHT22;4992;51.628;6.664;2024-03-25T05:42:13;2.90;99.90
9907;DHT22;4992;51.628;6.664;2024-03-25T05:44:38;2.90;99.90
9907;DHT22;4992;51.628;6.664;2024-03-25T05:47:04;2.90;99.90
9907;DHT22;4992;51.628;6.664;2024-03-25T05:49:29;2.90;99.90
9907;DHT22;4992;51.628;6.664;2024-03-25T05:51:55;2.80;99.90
9907;DHT22;4992;51.628;6.664;2024-03-25T05:54:21;2.80;99.90
9907;DHT22;4992;51.628;6.664;2024-03-25T05:56:46;2.80;99.90
9907;DHT22;4992;51.628;6.664;2024-03-25T05:59:12;2.80;99.90
9907;DHT22;4992;51.628;6.664;2024-03-25T06:01:37;2.70;99.90
9907;DHT22;4992;51.628;6.664;2024-03-25T06:04:03;2.70;99.90
9907;DHT22;4992;51.628;6.664;2024-03-25T06:06:29;2.70;99.90
9907;DHT22;4992;51.628;6.664;2024-03-25T06:08:55;2.70;99.90
9907;DHT22;4992;51.628;6.664;2024-03-25T06:11:20;2.70;99.90
9907;DHT22;4992;51.628;6.664;2024-03-25T06:13:46;2.70;99.90
9907;DHT22;4992;51.628;6.664;2024-03-25T06:16:13;2.70;99.90
9907;DHT22;4992;51.628;6.664;2024-03-25T06:18:38;2.70;99.90
9907;DHT22;4992;51.628;6.664;2024-03-25T06:21:05;2.80;99.90
9907;DHT22;4992;51.628;6.664;2024-03-25T06:23:31;2.80;99.90
9907;DHT22;4992;51.628;6.664;2024-03-25T06:25:56;2.80;99.90
9907;DHT22;4992;51.628;6.664;2024-03-25T06:28:22;2.90;99.90
9907;DHT22;4992;51.628;6.664;2024-03-25T06:30:49;2.90;99.90
9907;DHT22;4992;51.628;6.664;2024-03-25T06:33:44;3.00;99.90
9907;DHT22;4992;51.628;6.664;2024-03-25T06:36:28;3.10;99.90
9907;DHT22;4992;51.628;6.664;2024-03-25T06:38:53;3.20;99.90
9907;DHT22;4992;51.628;6.664;2024-03-25T06:41:19;3.30;99.90
9907;DHT22;4992;51.628;6.664;2024-03-25T06:43:46;3.40;99.90
9907;DHT22;4992;51.628;6.664;2024-03-25T06:46:11;3.50;99.90
9907;DHT22;4992;51.628;6.664;2024-03-25T06:48:37;3.60;99.90
9907;DHT22;4992;51.628;6.664;2024-03-25T06:51:03;3.80;99.90
9907;DHT22;4992;51.628;6.664;2024-03-25T06:53:29;4.00;99.90
9907;DHT22;4992;51.628;6.664;2024-03-25T06:55:58;4.10;99.90
9907;DHT22;4992;51.628;6.664;2024-03-25T06:58:26;4.30;99.90
9907;DHT22;4992;51.628;6.664;2024-03-25T07:00:52;4.40;99.90
9907;DHT22;4992;51.628;6.664;2024-03-25T07:03:19;4.60;99.90
9907;DHT22;4992;51.628;6.664;2024-03-25T07:05:45;4.70;99.90
9907;DHT22;4992;51.628;6.664;2024-03-25T07:08:12;4.90;99.90
9907;DHT22;4992;51.628;6.664;2024-03-25T07:10:38;5.00;99.90
9907;DHT22;4992;51.628;6.664;2024-03-25T07:13:03;5.10;99.90
9907;DHT22;4992;51.628;6.664;2024-03-25T07:15:30;5.20;99.90
9907;DHT22;4992;51.628;6.664;2024-03-25T07:17:56;5.30;99.90
9907;DHT22;4992;51.628;6.664;2024-03-25T07:20:21;5.40;99.90
9907;DHT22;4992;51.628;6.664;2024-03-25T07:22:48;5.50;99.90
9907;DHT22;4992;51.628;6.664;2024-03-25T07:25:13;5.60;99.90
9907;DHT22;4992;51.628;6.664;2024-03-25T07:27:39;5.70;99.90
9907;DHT22;4992;51.628;6.664;2024-03-25T07:30:06;5.80;99.90
9907;DHT22;4992;51.628;6.664;2024-03-25T07:32:33;5.90;99.90
9907;DHT22;4992;51.628;6.664;2024-03-25T07:34:58;6.00;99.90
9907;DHT22;4992;51.628;6.664;2024-03-25T07:37:24;6.10;99.90
9907;DHT22;4992;51.628;6.664;2024-03-25T07:39:49;6.20;99.90
9907;DHT22;4992;51.628;6.664;2024-03-25T07:42:15;6.30;99.90
9907;DHT22;4992;51.628;6.664;2024-03-25T07:44:40;6.40;99.90
9907;DHT22;4992;51.628;6.664;2024-03-25T07:47:06;6.50;99.90
9907;DHT22;4992;51.628;6.664;2024-03-25T07:49:32;6.60;99.90
9907;DHT22;4992;51.628;6.664;2024-03-25T07:52:00;6.70;99.90
9907;DHT22;4992;51.628;6.664;2024-03-25T07:54:25;6.80;99.90
9907;DHT22;4992;51.628;6.664;2024-03-25T07:56:52;6.90;99.90
9907;DHT22;4992;51.628;6.664;2024-03-25T07:59:18;7.00;99.90
9907;DHT22;4992;51.628;6.664;2024-03-25T08:01:44;7.20;99.90
9907;DHT22;4992;51.628;6.664;2024-03-25T08:04:09;7.40;99.90
9907;DHT22;4992;51.628;6.664;2024-03-25T08:06:35;7.60;99.90
9907;DHT22;4992;51.628;6.664;2024-03-25T08:09:00;7.70;99.90
9907;DHT22;4992;51.628;6.664;2024-03-25T08:11:26;8.00;99.90
9907;DHT22;4992;51.628;6.664;2024-03-25T08:13:52;8.10;99.90
9907;DHT22;4992;51.628;6.664;2024-03-25T08:16:17;8.30;99.90
9907;DHT22;4992;51.628;6.664;2024-03-25T08:18:45;8.40;99.90
9907;DHT22;4992;51.628;6.664;2024-03-25T08:21:10;8.50;99.90
9907;DHT22;4992;51.628;6.664;2024-03-25T08:23:36;8.70;99.90
9907;DHT22;4992;51.628;6.664;2024-03-25T08:26:01;8.80;99.90
9907;DHT22;4992;51.628;6.664;2024-03-25T08:28:27;9.00;99.90
9907;DHT22;4992;51.628;6.664;2024-03-25T08:30:53;9.10;99.90
9907;DHT22;4992;51.628;6.664;2024-03-25T08:33:18;9.30;99.90
9907;DHT22;4992;51.628;6.664;2024-03-25T08:35:44;9.30;99.90
9907;DHT22;4992;51.628;6.664;2024-03-25T08:38:09;9.40;99.90
9907;DHT22;4992;51.628;6.664;2024-03-25T08:40:35;9.40;99.90
9907;DHT22;4992;51.628;6.664;2024-03-25T08:43:00;9.60;99.90
9907;DHT22;4992;51.628;6.664;2024-03-25T08:45:26;9.70;99.90
9907;DHT22;4992;51.628;6.664;2024-03-25T08:47:52;9.90;99.90
9907;DHT22;4992;51.628;6.664;2024-03-25T08:50:17;10.10;99.90
9907;DHT22;4992;51.628;6.664;2024-03-25T08:52:43;10.20;99.90
9907;DHT22;4992;51.628;6.664;2024-03-25T08:55:08;10.30;99.90
9907;DHT22;4992;51.628;6.664;2024-03-25T08:57:34;10.50;99.90
9907;DHT22;4992;51.628;6.664;2024-03-25T09:00:00;10.70;99.90
9907;DHT22;4992;51.628;6.664;2024-03-25T09:02:25;10.80;99.90
9907;DHT22;4992;51.628;6.664;2024-03-25T09:04:51;10.90;99.90
9907;DHT22;4992;51.628;6.664;2024-03-25T09:07:18;11.00;99.90
9907;DHT22;4992;51.628;6.664;2024-03-25T09:09:43;10.90;99.90
9907;DHT22;4992;51.628;6.664;2024-03-25T09:12:27;10.70;99.90
9907;DHT22;4992;51.628;6.664;2024-03-25T09:14:53;10.40;99.90
9907;DHT22;4992;51.628;6.664;2024-03-25T09:17:19;10.10;99.90
9907;DHT22;4992;51.628;6.664;2024-03-25T09:19:44;9.90;99.90
9907;DHT22;4992;51.628;6.664;2024-03-25T09:22:10;9.70;99.90
9907;DHT22;4992;51.628;6.664;2024-03-25T09:24:35;9.60;99.90
9907;DHT22;4992;51.628;6.664;2024-03-25T09:27:01;9.50;99.90
9907;DHT22;4992;51.628;6.664;2024-03-25T09:29:26;9.50;99.90
9907;DHT22;4992;51.628;6.664;2024-03-25T09:31:52;9.50;99.90
9907;DHT22;4992;51.628;6.664;2024-03-25T09:34:17;9.40;99.90
9907;DHT22;4992;51.628;6.664;2024-03-25T09:36:43;9.40;99.90
9907;DHT22;4992;51.628;6.664;2024-03-25T09:39:08;9.40;99.90
9907;DHT22;4992;51.628;6.664;2024-03-25T09:41:35;9.40;99.90
9907;DHT22;4992;51.628;6.664;2024-03-25T09:44:02;9.40;99.90
9907;DHT22;4992;51.628;6.664;2024-03-25T09:46:30;9.60;99.90
9907;DHT22;4992;51.628;6.664;2024-03-25T09:48:56;9.70;99.90
9907;DHT22;4992;51.628;6.664;2024-03-25T09:51:22;9.80;99.90
9907;DHT22;4992;51.628;6.664;2024-03-25T09:53:47;9.90;99.90
9907;DHT22;4992;51.628;6.664;2024-03-25T09:56:13;9.90;99.90
9907;DHT22;4992;51.628;6.664;2024-03-25T09:58:40;10.00;99.90
9907;DHT22;4992;51.628;6.664;2024-03-25T10:01:07;10.00;99.90
9907;DHT22;4992;51.628;6.664;2024-03-25T10:03:32;10.10;99.90
9907;DHT22;4992;51.628;6.664;2024-03-25T10:05:58;10.10;99.90
9907;DHT22;4992;51.628;6.664;2024-03-25T10:08:24;10.10;99.90
9907;DHT22;4992;51.628;6.664;2024-03-25T10:10:55;10.10;99.90
9907;DHT22;4992;51.628;6.664;2024-03-25T10:13:22;10.20;99.90
9907;DHT22;4992;51.628;6.664;2024-03-25T10:15:48;10.30;99.90
9907;DHT22;4992;51.628;6.664;2024-03-25T10:18:13;10.50;99.90
9907;DHT22;4992;51.628;6.664;2024-03-25T10:20:48;10.80;99.90
9907;DHT22;4992;51.628;6.664;2024-03-25T10:23:13;10.90;99.90
9907;DHT22;4992;51.628;6.664;2024-03-25T10:25:39;11.10;99.90
9907;DHT22;4992;51.628;6.664;2024-03-25T10:28:05;11.10;99.90
9907;DHT22;4992;51.628;6.664;2024-03-25T10:30:30;11.30;99.90
9907;DHT22;4992;51.628;6.664;2024-03-25T10:33:04;11.40;99.90
9907;DHT22;4992;51.628;6.664;2024-03-25T10:35:31;11.50;99.90
9907;DHT22;4992;51.628;6.664;2024-03-25T10:37:59;11.70;99.90
9907;DHT22;4992;51.628;6.664;2024-03-25T10:40:28;11.70;99.90
9907;DHT22;4992;51.628;6.664;2024-03-25T10:43:02;11.60;99.90
9907;DHT22;4992;51.628;6.664;2024-03-25T10:45:31;11.60;99.90
9907;DHT22;4992;51.628;6.664;2024-03-25T10:48:02;12.20;99.90
9907;DHT22;4992;51.628;6.664;2024-03-25T10:50:29;13.30;99.90
9907;DHT22;4992;51.628;6.664;2024-03-25T10:52:57;14.20;99.90
9907;DHT22;4992;51.628;6.664;2024-03-25T10:55:24;15.00;99.90
9907;DHT22;4992;51.628;6.664;2024-03-25T10:57:52;16.00;99.90
9907;DHT22;4992;51.628;6.664;2024-03-25T11:00:19;16.90;99.90
9907;DHT22;4992;51.628;6.664;2024-03-25T11:02:47;17.80;99.90
9907;DHT22;4992;51.628;6.664;2024-03-25T11:05:13;18.40;99.90
9907;DHT22;4992;51.628;6.664;2024-03-25T11:07:40;19.00;99.90
9907;DHT22;4992;51.628;6.664;2024-03-25T11:10:07;19.40;97.10
9907;DHT22;4992;51.628;6.664;2024-03-25T11:12:38;19.70;99.90
9907;DHT22;4992;51.628;6.664;2024-03-25T11:15:05;19.90;94.20
9907;DHT22;4992;51.628;6.664;2024-03-25T11:17:32;19.60;95.30
9907;DHT22;4992;51.628;6.664;2024-03-25T11:20:13;18.90;93.80
9907;DHT22;4992;51.628;6.664;2024-03-25T11:22:50;17.90;94.10
9907;DHT22;4992;51.628;6.664;2024-03-25T11:25:16;17.20;96.50
9907;DHT22;4992;51.628;6.664;2024-03-25T11:27:43;17.20;96.70
9907;DHT22;4992;51.628;6.664;2024-03-25T11:30:11;17.50;97.10
9907;DHT22;4992;51.628;6.664;2024-03-25T11:32:51;17.90;96.80
9907;DHT22;4992;51.628;6.664;2024-03-25T11:35:18;18.00;96.90
9907;DHT22;4992;51.628;6.664;2024-03-25T11:37:44;18.40;94.40
9907;DHT22;4992;51.628;6.664;2024-03-25T11:40:10;18.60;95.90
9907;DHT22;4992;51.628;6.664;2024-03-25T11:42:41;18.30;92.80
9907;DHT22;4992;51.628;6.664;2024-03-25T11:45:17;18.20;94.30
9907;DHT22;4992;51.628;6.664;2024-03-25T11:47:43;18.70;94.00
9907;DHT22;4992;51.628;6.664;2024-03-25T11:50:11;19.00;91.90
9907;DHT22;4992;51.628;6.664;2024-03-25T11:52:37;19.40;93.80
9907;DHT22;4992;51.628;6.664;2024-03-25T11:55:03;19.70;92.60
9907;DHT22;4992;51.628;6.664;2024-03-25T11:57:29;20.10;93.20
9907;DHT22;4992;51.628;6.664;2024-03-25T11:59:54;20.00;92.20
9907;DHT22;4992;51.628;6.664;2024-03-25T12:02:20;19.20;92.10
9907;DHT22;4992;51.628;6.664;2024-03-25T12:04:47;18.50;91.80
9907;DHT22;4992;51.628;6.664;2024-03-25T12:07:14;18.30;92.80
9907;DHT22;4992;51.628;6.664;2024-03-25T12:09:40;18.40;93.10
9907;DHT22;4992;51.628;6.664;2024-03-25T12:12:25;18.80;94.00
9907;DHT22;4992;51.628;6.664;2024-03-25T12:14:51;19.50;90.80
9907;DHT22;4992;51.628;6.664;2024-03-25T12:17:18;19.80;90.40
9907;DHT22;4992;51.628;6.664;2024-03-25T12:19:44;20.10;89.80
9907;DHT22;4992;51.628;6.664;2024-03-25T12:22:10;20.90;90.50
9907;DHT22;4992;51.628;6.664;2024-03-25T12:24:35;21.00;87.10
9907;DHT22;4992;51.628;6.664;2024-03-25T12:27:01;20.90;85.10
9907;DHT22;4992;51.628;6.664;2024-03-25T12:29:28;21.50;89.10
9907;DHT22;4992;51.628;6.664;2024-03-25T12:31:57;22.00;77.90
9907;DHT22;4992;51.628;6.664;2024-03-25T12:34:26;22.10;75.00
9907;DHT22;4992;51.628;6.664;2024-03-25T12:36:51;22.30;77.40
9907;DHT22;4992;51.628;6.664;2024-03-25T12:39:18;22.80;76.00
9907;DHT22;4992;51.628;6.664;2024-03-25T12:41:44;23.70;77.50
9907;DHT22;4992;51.628;6.664;2024-03-25T12:44:12;23.90;72.00
9907;DHT22;4992;51.628;6.664;2024-03-25T12:49:05;24.30;70.30
9907;DHT22;4992;51.628;6.664;2024-03-25T12:51:30;24.30;69.40
9907;DHT22;4992;51.628;6.664;2024-03-25T12:53:56;24.20;69.70
9907;DHT22;4992;51.628;6.664;2024-03-25T12:56:21;24.20;70.90
9907;DHT22;4992;51.628;6.664;2024-03-25T12:58:47;23.60;65.80
9907;DHT22;4992;51.628;6.664;2024-03-25T13:01:13;23.60;66.70
9907;DHT22;4992;51.628;6.664;2024-03-25T13:03:39;23.10;67.20
9907;DHT22;4992;51.628;6.664;2024-03-25T13:06:05;22.90;67.10
9907;DHT22;4992;51.628;6.664;2024-03-25T13:08:30;23.00;65.90
9907;DHT22;4992;51.628;6.664;2024-03-25T13:10:56;23.10;67.90
9907;DHT22;4992;51.628;6.664;2024-03-25T13:13:22;23.20;67.20
9907;DHT22;4992;51.628;6.664;2024-03-25T13:15:47;23.10;65.90
9907;DHT22;4992;51.628;6.664;2024-03-25T13:18:13;23.20;66.60
9907;DHT22;4992;51.628;6.664;2024-03-25T13:20:38;23.30;67.10
9907;DHT22;4992;51.628;6.664;2024-03-25T13:23:04;23.30;65.40
9907;DHT22;4992;51.628;6.664;2024-03-25T13:25:29;22.60;66.60
9907;DHT22;4992;51.628;6.664;2024-03-25T13:27:56;22.00;68.60
9907;DHT22;4992;51.628;6.664;2024-03-25T13:30:21;21.90;66.90
9907;DHT22;4992;51.628;6.664;2024-03-25T13:32:50;22.30;71.00
9907;DHT22;4992;51.628;6.664;2024-03-25T13:35:15;21.90;67.90
9907;DHT22;4992;51.628;6.664;2024-03-25T13:37:41;21.40;67.10
9907;DHT22;4992;51.628;6.664;2024-03-25T13:40:07;21.60;66.10
9907;DHT22;4992;51.628;6.664;2024-03-25T13:42:34;21.80;69.80
9907;DHT22;4992;51.628;6.664;2024-03-25T13:45:00;22.20;69.40
9907;DHT22;4992;51.628;6.664;2024-03-25T13:47:25;22.60;70.70
9907;DHT22;4992;51.628;6.664;2024-03-25T13:50:03;23.50;67.50
9907;DHT22;4992;51.628;6.664;2024-03-25T13:52:29;23.70;60.70
9907;DHT22;4992;51.628;6.664;2024-03-25T13:54:54;23.80;63.40
9907;DHT22;4992;51.628;6.664;2024-03-25T13:57:20;24.20;63.50
9907;DHT22;4992;51.628;6.664;2024-03-25T13:59:46;24.10;62.00
9907;DHT22;4992;51.628;6.664;2024-03-25T14:02:11;24.50;62.20
9907;DHT22;4992;51.628;6.664;2024-03-25T14:04:37;24.60;58.90
9907;DHT22;4992;51.628;6.664;2024-03-25T14:07:02;25.00;60.00
9907;DHT22;4992;51.628;6.664;2024-03-25T14:09:28;25.20;59.90
9907;DHT22;4992;51.628;6.664;2024-03-25T14:11:54;25.60;58.10
9907;DHT22;4992;51.628;6.664;2024-03-25T14:14:19;25.90;59.20
9907;DHT22;4992;51.628;6.664;2024-03-25T14:16:45;26.00;59.40
9907;DHT22;4992;51.628;6.664;2024-03-25T14:19:11;26.50;57.20
9907;DHT22;4992;51.628;6.664;2024-03-25T14:21:36;26.40;56.20
9907;DHT22;4992;51.628;6.664;2024-03-25T14:24:04;25.80;55.30
9907;DHT22;4992;51.628;6.664;2024-03-25T14:26:30;24.90;56.30
9907;DHT22;4992;51.628;6.664;2024-03-25T14:28:56;24.20;58.70
9907;DHT22;4992;51.628;6.664;2024-03-25T14:31:21;24.60;58.90
9907;DHT22;4992;51.628;6.664;2024-03-25T14:33:47;25.10;59.20
9907;DHT22;4992;51.628;6.664;2024-03-25T14:36:12;25.20;58.80
9907;DHT22;4992;51.628;6.664;2024-03-25T14:38:38;25.00;58.70
9907;DHT22;4992;51.628;6.664;2024-03-25T14:41:04;24.80;56.60
9907;DHT22;4992;51.628;6.664;2024-03-25T14:43:30;25.00;57.90
9907;DHT22;4992;51.628;6.664;2024-03-25T14:45:56;25.00;56.90
9907;DHT22;4992;51.628;6.664;2024-03-25T14:48:21;25.00;54.90
9907;DHT22;4992;51.628;6.664;2024-03-25T14:50:47;25.20;55.20
9907;DHT22;4992;51.628;6.664;2024-03-25T14:53:12;25.60;56.00
9907;DHT22;4992;51.628;6.664;2024-03-25T14:55:38;26.00;54.20
9907;DHT22;4992;51.628;6.664;2024-03-25T14:58:03;26.30;53.90
9907;DHT22;4992;51.628;6.664;2024-03-25T15:00:29;26.50;52.90
9907;DHT22;4992;51.628;6.664;2024-03-25T15:02:55;26.60;52.30
9907;DHT22;4992;51.628;6.664;2024-03-25T15:05:20;26.40;54.60
9907;DHT22;4992;51.628;6.664;2024-03-25T15:07:46;25.80;52.40
9907;DHT22;4992;51.628;6.664;2024-03-25T15:10:11;25.50;52.90
9907;DHT22;4992;51.628;6.664;2024-03-25T15:12:40;23.80;52.10
9907;DHT22;4992;51.628;6.664;2024-03-25T15:15:06;22.00;56.60
9907;DHT22;4992;51.628;6.664;2024-03-25T15:17:33;20.60;56.40
9907;DHT22;4992;51.628;6.664;2024-03-25T15:19:59;18.90;60.00
9907;DHT22;4992;51.628;6.664;2024-03-25T15:22:25;18.00;61.60
9907;DHT22;4992;51.628;6.664;2024-03-25T15:24:50;17.20;65.80
9907;DHT22;4992;51.628;6.664;2024-03-25T15:27:16;16.60;66.90
9907;DHT22;4992;51.628;6.664;2024-03-25T15:29:41;16.10;70.80
9907;DHT22;4992;51.628;6.664;2024-03-25T15:32:07;15.90;71.60
9907;DHT22;4992;51.628;6.664;2024-03-25T15:34:32;15.60;73.10
9907;DHT22;4992;51.628;6.664;2024-03-25T15:36:58;15.30;72.10
9907;DHT22;4992;51.628;6.664;2024-03-25T15:39:23;14.80;71.00
9907;DHT22;4992;51.628;6.664;2024-03-25T15:41:49;14.40;74.20
9907;DHT22;4992;51.628;6.664;2024-03-25T15:44:15;14.10;74.70
9907;DHT22;4992;51.628;6.664;2024-03-25T15:46:41;13.90;73.90
9907;DHT22;4992;51.628;6.664;2024-03-25T15:49:07;13.70;77.80
9907;DHT22;4992;51.628;6.664;2024-03-25T15:51:33;13.60;75.10
9907;DHT22;4992;51.628;6.664;2024-03-25T15:53:58;13.40;76.90
9907;DHT22;4992;51.628;6.664;2024-03-25T15:56:24;13.30;75.20
9907;DHT22;4992;51.628;6.664;2024-03-25T15:58:50;13.20;75.60
9907;DHT22;4992;51.628;6.664;2024-03-25T16:01:15;13.10;77.40
9907;DHT22;4992;51.628;6.664;2024-03-25T16:03:41;12.90;78.00
9907;DHT22;4992;51.628;6.664;2024-03-25T16:06:07;12.90;77.80
9907;DHT22;4992;51.628;6.664;2024-03-25T16:08:32;12.70;77.40